Flight Track Log - Related Links

Times and Time Zones

All times are in EDT time to prevent confusion due to time zone crossing. See the UAL761 flight status page for this flight to view local times or setup timezone preferences in your user account.

Time Position Orientation Groundspeed Altitude Reporting Facility
EDT Latitude Longitude Course Direction KTS MPH feet Rate Location/Type
Sat 08:18:20 AM 41.9667 -87.9500 197° South 180 207 1,600  Level Chicago TRACON
Sat 08:19:20 AM 41.9167 -87.9667 215° Southwest 239 275 2,700 1,680 Climbing Chicago TRACON
Sat 08:20:00 AM 41.8708 -87.9658 179° South 244 281 4,400 2,376 Climbing Chicago Center
Sat 08:20:00 AM 41.5431 -88.1061 197° South  Level FlightAware Approximate
Sat 08:21:00 AM 41.4326 -88.1503 194° South  Level FlightAware Approximate
Sat 08:21:01 AM 41.7967 -87.9642 179° South 267 307 6,700  Level Chicago Center
Sat 08:22:00 AM 41.3238 -88.1998 203° Southwest  Level FlightAware Approximate
Sat 08:22:02 AM 41.7197 -87.9761 187° South 288 331 8,800  Level Chicago Center
Sat 08:23:00 AM 41.2168 -88.2567 197° South  Level FlightAware Approximate
Sat 08:23:03 AM 41.6397 -88.0281 206° Southwest 299 344 11,000  Level Chicago Center
Sat 08:24:04 AM 41.5628 -88.0767 205° Southwest 307 353 13,000 1,426 Climbing Chicago Center
Sat 08:25:05 AM 41.4817 -88.1289 206° Southwest 329 379 13,900 829 Climbing Chicago Center
Sat 08:26:07 AM 41.3789 -88.1950 206° Southwest 395 455 14,700 1,073 Climbing Chicago Center
Sat 08:27:08 AM 41.2711 -88.2411 198° South 406 467 16,100 1,475 Climbing Chicago Center
Sat 08:28:09 AM 41.1628 -88.2892 198° South 409 471 17,700 1,279 Climbing Chicago Center
Sat 08:29:10 AM 41.0692 -88.3314 199° South 410 472 18,700 1,131 Climbing Chicago Center
Sat 08:30:11 AM 40.9353 -88.3919 199° South 419 482 20,000 1,171 Climbing Chicago Center
Sat 08:31:13 AM 40.8214 -88.4433 199° South 428 493 21,100 1,024 Climbing Chicago Center
Sat 08:32:14 AM 40.7056 -88.4942 198° South 436 502 22,100 836 Climbing Chicago Center
Sat 08:33:15 AM 40.5864 -88.5469 199° South 448 516 22,800 787 Climbing Chicago Center
Sat 08:34:16 AM 40.4669 -88.5989 198° South 450 518 23,700 829 Climbing Chicago Center
Sat 08:35:18 AM 40.3522 -88.6508 199° South 451 519 24,500 683 Climbing Chicago Center
Sat 08:36:19 AM 40.2511 -88.7511 217° Southwest 462 532 25,100 639 Climbing Chicago Center
Sat 08:37:20 AM 40.1586 -88.8686 224° Southwest 462 532 25,800 703 Climbing Chicago Center
Sat 08:38:10 AM 40.0642 -88.9886 224° Southwest 462 532 26,400 643 Climbing Kansas City Center
Sat 08:39:12 AM 39.9694 -89.1069 224° Southwest 465 535 27,000 634 Climbing Kansas City Center
Sat 08:40:13 AM 39.8742 -89.2281 224° Southwest 472 543 27,700 639 Climbing Kansas City Center
Sat 08:41:14 AM 39.7783 -89.3481 224° Southwest 473 544 28,300 639 Climbing Kansas City Center
Sat 08:42:15 AM 39.6947 -89.4536 224° Southwest 474 545 29,000 732 Climbing Kansas City Center
Sat 08:43:17 AM 39.5897 -89.6017 227° Southwest 472 543 29,800 732 Climbing Kansas City Center
Sat 08:44:18 AM 39.5628 -89.7653 258° West 479 551 30,500 590 Climbing Kansas City Center
Sat 08:45:19 AM 39.5578 -89.9361 268° West 479 551 31,000 634 Climbing Kansas City Center
Sat 08:46:21 AM 39.5525 -90.1044 268° West 478 550 31,800 634 Climbing Kansas City Center
Sat 08:47:22 AM 39.5467 -90.2753 268° West 478 550 32,300 541 Climbing Kansas City Center
Sat 08:48:23 AM 39.5406 -90.4414 267° West 472 543 32,900 585 Climbing Kansas City Center
Sat 08:49:25 AM 39.5350 -90.6075 268° West 469 540 33,500 390 Climbing Kansas City Center
Sat 08:50:26 AM 39.5281 -90.7728 267° West 468 539 33,700 246 Climbing Kansas City Center
Sat 08:51:27 AM 39.5200 -90.9706 267° West 467 537 34,000 146 Climbing Kansas City Center
Sat 08:52:29 AM 39.5142 -91.1367 267° West 465 535 34,000  Level Kansas City Center
Sat 08:53:30 AM 39.5067 -91.3056 267° West 466 536 34,000  Level Kansas City Center
Sat 08:54:31 AM 39.4986 -91.4739 267° West 466 536 34,000  Level Kansas City Center
Sat 08:55:33 AM 39.4911 -91.6425 267° West 467 537 34,000  Level Kansas City Center
Sat 08:56:34 AM 39.4822 -91.8103 266° West 467 537 34,000  Level Kansas City Center
Sat 08:57:36 AM 39.4742 -91.9775 266° West 467 537 34,000  Level Kansas City Center
Sat 08:58:37 AM 39.4658 -92.1442 266° West 467 537 34,000  Level Kansas City Center
Sat 08:59:40 AM 39.4558 -92.3467 266° West 467 537 34,000  Level Kansas City Center
Sat 09:00:41 AM 39.4456 -92.5156 266° West 468 539 34,000  Level Kansas City Center
Sat 09:01:43 AM 39.4375 -92.6847 267° West 468 539 34,000  Level Kansas City Center
Sat 09:02:44 AM 39.4267 -92.8558 265° West 473 544 34,000  Level Kansas City Center
Sat 09:03:46 AM 39.4172 -93.0256 266° West 473 544 34,000  Level Kansas City Center
Sat 09:04:47 AM 39.4067 -93.1953 265° West 474 545 34,000  Level Kansas City Center
Sat 09:05:49 AM 39.3953 -93.3644 265° West 474 545 34,000  Level Kansas City Center
Sat 09:06:50 AM 39.3847 -93.5728 266° West 482 555 34,000  Level Kansas City Center
Sat 09:07:52 AM 39.3733 -93.7408 265° West 478 550 34,000  Level Kansas City Center
Sat 09:08:53 AM 39.3631 -93.8936 265° West 475 547 34,000  Level Kansas City Center
Sat 09:09:55 AM 39.3494 -94.0967 265° West 474 545 34,000  Level Kansas City Center
Sat 09:10:56 AM 39.3383 -94.2667 265° West 475 547 34,000  Level Kansas City Center
Sat 09:11:58 AM 39.3261 -94.4364 265° West 475 547 34,000  Level Kansas City Center
Sat 09:13:00 AM 39.3150 -94.6050 265° West 474 545 34,000  Level Kansas City Center
Sat 09:14:01 AM 39.3006 -94.7747 264° West 474 545 34,000  Level Kansas City Center
Sat 09:15:03 AM 39.2878 -94.9467 265° West 491 565 34,000  Level Kansas City Center
Sat 09:16:05 AM 39.2725 -95.1442 264° West 473 544 34,000  Level Kansas City Center
Sat 09:17:06 AM 39.2594 -95.3206 265° West 473 544 34,000  Level Kansas City Center
Sat 09:18:08 AM 39.2469 -95.4719 264° West 475 547 34,000  Level Kansas City Center
Sat 09:19:09 AM 39.2339 -95.6417 264° West 478 550 34,000  Level Kansas City Center
Sat 09:20:11 AM 39.2197 -95.8122 264° West 478 550 34,000  Level Kansas City Center
Sat 09:21:13 AM 39.2025 -96.0172 264° West 478 550 34,000  Level Kansas City Center
Sat 09:22:14 AM 39.1881 -96.1861 264° West 478 550 34,000  Level Kansas City Center
Sat 09:23:16 AM 39.1731 -96.3567 264° West 478 550 34,000  Level Kansas City Center
Sat 09:24:18 AM 39.1583 -96.5283 264° West 481 554 34,000  Level Kansas City Center
Sat 09:25:19 AM 39.1461 -96.7025 265° West 487 560 34,000  Level Kansas City Center
Sat 09:26:21 AM 39.1536 -96.8753 273° West 486 559 34,000  Level Kansas City Center
Sat 09:27:23 AM 39.1625 -97.0506 274° West 487 560 34,000  Level Kansas City Center
Sat 09:28:25 AM 39.1719 -97.2592 273° West 488 562 34,000  Level Kansas City Center
Sat 09:29:26 AM 39.1786 -97.4328 273° West 488 562 34,000  Level Kansas City Center
Sat 09:30:28 AM 39.1858 -97.6058 273° West 486 559 34,000  Level Kansas City Center
Sat 09:31:30 AM 39.1919 -97.7806 273° West 487 560 34,000  Level Kansas City Center
Sat 09:32:32 AM 39.1989 -97.9603 273° West 487 560 34,000  Level Kansas City Center
Sat 09:33:34 AM 39.2050 -98.1331 273° West 487 560 34,000  Level Kansas City Center
Sat 09:34:35 AM 39.2111 -98.3050 273° West 487 560 34,000  Level Kansas City Center
Sat 09:35:37 AM 39.2161 -98.4978 272° West 486 559 34,000  Level Kansas City Center
Sat 09:36:39 AM 39.2231 -98.6806 273° West 483 556 34,000  Level Kansas City Center
Sat 09:37:41 AM 39.2289 -98.8528 273° West 482 555 34,000  Level Kansas City Center
Sat 09:38:43 AM 39.2317 -99.0308 271° West 487 560 34,000  Level Kansas City Center
Sat 09:39:45 AM 39.2367 -99.2017 272° West 482 555 34,000  Level Kansas City Center
Sat 09:40:47 AM 39.2411 -99.3731 272° West 482 555 34,000  Level Kansas City Center
Sat 09:41:49 AM 39.2450 -99.5439 272° West 482 555 34,000  Level Kansas City Center
Sat 09:42:51 AM 39.2500 -99.7511 272° West 480 552 34,000  Level Kansas City Center
Sat 09:43:53 AM 39.2539 -99.9144 272° West 478 550 34,000  Level Kansas City Center
Sat 09:44:55 AM 39.2561 -100.1028 271° West 477 549 34,000  Level Kansas City Center
Sat 09:45:56 AM 39.2486 -100.2622 267° West 476 548 34,000  Level Kansas City Center
Sat 09:47:07 AM 39.2089 -100.4619 256° West 468 539 34,000  Level Denver Center
Sat 09:48:08 AM 39.1761 -100.6111 254° West 459 528 34,000  Level Denver Center
Sat 09:49:09 AM 39.1447 -100.7636 255° West 459 528 34,000  Level Denver Center
Sat 09:50:10 AM 39.1064 -100.9428 255° West 461 531 34,000  Level Denver Center
Sat 09:51:11 AM 39.0736 -101.0942 254° West 461 531 34,000  Level Denver Center
Sat 09:52:12 AM 39.0408 -101.2436 254° West 458 527 34,000 -49 Level Denver Center
Sat 09:53:13 AM 39.0033 -101.4172 255° West 455 524 33,900  Descending Denver Center
Sat 09:54:14 AM 38.9711 -101.5628 254° West 448 516 34,000 49 Climbing Denver Center
Sat 09:55:15 AM 38.9386 -101.7094 254° West 448 516 34,000  Level Denver Center
Sat 09:56:16 AM 38.9006 -101.8819 254° West 448 516 34,000  Level Denver Center
Sat 09:57:17 AM 38.8667 -102.0306 254° West 450 518 34,000 49 Level Denver Center
Sat 09:58:18 AM 38.8278 -102.2028 254° West 450 518 34,100  Climbing Denver Center
Sat 09:59:19 AM 38.7922 -102.3506 253° West 451 519 34,000 -49 Descending Denver Center
Sat 10:00:20 AM 38.7606 -102.4953 254° West 449 517 34,000  Level Denver Center
Sat 10:01:21 AM 38.7206 -102.6636 253° West 446 513 34,000  Level Denver Center
Sat 10:02:23 AM 38.6853 -102.8128 253° West 443 510 34,000  Level Denver Center
Sat 10:03:24 AM 38.6506 -102.9617 253° West 441 507 34,000  Level Denver Center
Sat 10:04:25 AM 38.6153 -103.1103 253° West 441 507 34,000  Level Denver Center
Sat 10:05:26 AM 38.5800 -103.2594 253° West 440 506 34,000  Level Denver Center
Sat 10:06:27 AM 38.5411 -103.4236 253° West 438 504 34,000  Level Denver Center
Sat 10:07:29 AM 38.5044 -103.5753 253° West 438 504 34,000  Level Denver Center
Sat 10:08:30 AM 38.4694 -103.7183 253° West 430 495 34,000  Level Denver Center
Sat 10:09:31 AM 38.4344 -103.8608 253° West 426 490 34,000 -49 Level Denver Center
Sat 10:10:33 AM 38.4000 -104.0033 253° West 426 490 33,900  Descending Denver Center
Sat 10:11:34 AM 38.3611 -104.1592 252° West 424 488 34,000 49 Climbing Denver Center
Sat 10:12:36 AM 38.3281 -104.2928 253° West 432 497 34,000  Level Denver Center
Sat 10:13:37 AM 38.3025 -104.4428 258° West 441 507 34,000  Level Denver Center
Sat 10:14:39 AM 38.3047 -104.6006 271° West 445 512 34,000  Level Denver Center
Sat 10:15:40 AM 38.3189 -104.7881 276° West 446 513 34,000  Level Denver Center
Sat 10:16:42 AM 38.3292 -104.9417 275° West 443 510 34,000  Level Denver Center
Sat 10:17:43 AM 38.3400 -105.0958 275° West 442 509 34,000  Level Denver Center
Sat 10:18:45 AM 38.3489 -105.2397 275° West 442 509 34,000  Level Denver Center
Sat 10:19:46 AM 38.3586 -105.3928 275° West 439 505 34,000  Level Denver Center
Sat 10:20:48 AM 38.3703 -105.5758 275° West 435 501 34,000  Level Denver Center
Sat 10:21:50 AM 38.3794 -105.7289 274° West 435 501 34,000 49 Level Denver Center
Sat 10:22:51 AM 38.3894 -105.8911 275° West 435 501 34,100  Climbing Denver Center
Sat 10:23:53 AM 38.3992 -106.0436 275° West 436 502 34,000 -97 Descending Denver Center
Sat 10:24:55 AM 38.4061 -106.1914 273° West 432 497 33,900  Descending Denver Center
Sat 10:25:56 AM 38.4158 -106.3458 275° West 434 499 34,000 49 Climbing Denver Center
Sat 10:26:58 AM 38.4239 -106.5008 274° West 434 499 34,000  Level Denver Center
Sat 10:28:00 AM 38.4325 -106.6567 274° West 436 502 34,000  Level Denver Center
Sat 10:29:01 AM 38.4403 -106.8108 274° West 436 502 34,000  Level Denver Center
Sat 10:30:03 AM 38.4475 -106.9636 274° West 434 499 34,000  Level Denver Center
Sat 10:31:05 AM 38.4522 -107.1478 272° West 433 498 34,000  Level Denver Center
Sat 10:32:07 AM 38.4517 -107.2836 270° West 429 494 34,000  Level Denver Center
Sat 10:33:09 AM 38.4525 -107.4622 270° West 428 493 34,000  Level Denver Center
Sat 10:34:11 AM 38.4531 -107.6111 270° West 425 489 34,000  Level Denver Center
Sat 10:35:12 AM 38.4533 -107.7589 270° West 421 484 34,000  Level Denver Center
Sat 10:36:14 AM 38.4528 -107.9067 270° West 419 482 34,000  Level Denver Center
Sat 10:37:16 AM 38.4531 -108.0506 270° West 412 474 34,000  Level Denver Center
Sat 10:38:18 AM 38.4519 -108.1964 269° West 411 473 34,000  Level Denver Center
Sat 10:39:20 AM 38.4528 -108.3386 270° West 407 468 34,000  Level Denver Center
Sat 10:40:22 AM 38.4508 -108.5139 269° West 407 468 34,000  Level Denver Center
Sat 10:41:24 AM 38.4500 -108.6622 270° West 418 481 34,000  Level Denver Center
Sat 10:42:26 AM 38.4492 -108.8067 270° West 411 473 34,000  Level Denver Center
Sat 10:43:27 AM 38.4478 -108.9492 269° West 406 467 34,000  Level Denver Center
Sat 10:44:29 AM 38.4456 -109.0914 269° West 403 464 34,000  Level Denver Center
Sat 10:45:31 AM 38.4439 -109.2358 269° West 404 465 34,000 48 Level Denver Center
Sat 10:46:33 AM 38.4425 -109.3831 269° West 411 473 34,100  Climbing Denver Center
Sat 10:47:35 AM 38.4394 -109.5542 269° West 408 470 34,000 -48 Descending Denver Center
Sat 10:48:37 AM 38.4372 -109.6964 269° West 405 466 34,000  Level Denver Center
Sat 10:49:39 AM 38.4350 -109.8411 269° West 405 466 34,000  Level Denver Center
Sat 10:50:41 AM 38.4317 -109.9842 268° West 405 466 34,000  Level Denver Center
Sat 10:51:43 AM 38.4294 -110.1289 269° West 407 468 34,000  Level Denver Center
Sat 10:52:45 AM 38.4269 -110.2731 269° West 407 468 34,000  Level Denver Center
Sat 10:53:47 AM 38.4231 -110.4181 268° West 407 468 34,000  Level Denver Center
Sat 10:54:49 AM 38.4186 -110.5903 268° West 407 468 34,000  Level Denver Center
Sat 10:55:52 AM 38.4147 -110.7314 268° West 402 463 34,000  Level Salt Lake Center
Sat 10:56:54 AM 38.4136 -110.8744 269° West 402 463 34,000  Level Salt Lake Center
Sat 10:57:56 AM 38.4114 -111.0086 269° West 402 463 34,000  Level Salt Lake Center
Sat 10:58:58 AM 38.4094 -111.1803 269° West 404 465 34,000  Level Salt Lake Center
Sat 11:00:00 AM 38.4064 -111.3208 268° West 403 464 34,000  Level Salt Lake Center
Sat 11:01:02 AM 38.4017 -111.4606 268° West 398 458 34,000  Level Salt Lake Center
Sat 11:02:04 AM 38.3994 -111.6022 269° West 399 459 34,000  Level Salt Lake Center
Sat 11:03:05 AM 38.3961 -111.7447 268° West 400 460 34,000  Level Salt Lake Center
Sat 11:04:07 AM 38.3939 -111.8875 269° West 401 461 34,000  Level Salt Lake Center
Sat 11:05:09 AM 38.3883 -112.0556 268° West 401 461 34,000  Level Salt Lake Center
Sat 11:06:11 AM 38.3856 -112.1972 269° West 401 461 34,000  Level Salt Lake Center
Sat 11:07:13 AM 38.3814 -112.3367 268° West 400 460 34,000  Level Salt Lake Center
Sat 11:08:15 AM 38.3775 -112.4769 268° West 400 460 34,000  Level Salt Lake Center
Sat 11:09:17 AM 38.3725 -112.6164 267° West 399 459 34,000  Level Salt Lake Center
Sat 11:10:19 AM 38.3683 -112.7853 268° West 399 459 34,000  Level Salt Lake Center
Sat 11:11:21 AM 38.3633 -112.9261 267° West 399 459 34,000  Level Salt Lake Center
Sat 11:12:23 AM 38.3575 -113.0653 267° West 399 459 34,000  Level Salt Lake Center
Sat 11:13:25 AM 38.3461 -113.2047 264° West 399 459 34,000  Level Salt Lake Center
Sat 11:14:27 AM 38.3356 -113.3447 265° West 399 459 34,000  Level Salt Lake Center
Sat 11:15:29 AM 38.3244 -113.4839 264° West 399 459 34,000  Level Salt Lake Center
Sat 11:16:31 AM 38.3117 -113.6525 265° West 399 459 34,000  Level Salt Lake Center
Sat 11:17:33 AM 38.2997 -113.7919 264° West 399 459 34,000  Level Salt Lake Center
Sat 11:18:35 AM 38.2886 -113.9314 264° West 399 459 34,000  Level Salt Lake Center
Sat 11:19:37 AM 38.2764 -114.0711 264° West 399 459 34,000  Level Salt Lake Center
Sat 11:20:39 AM 38.2658 -114.2128 265° West 400 460 34,000  Level Salt Lake Center
Sat 11:21:41 AM 38.2517 -114.3811 264° West 400 460 34,000  Level Salt Lake Center
Sat 11:22:43 AM 38.2444 -114.5233 266° West 402 463 34,000  Level Salt Lake Center
Sat 11:23:45 AM 38.2408 -114.6650 268° West 402 463 34,000  Level Salt Lake Center
Sat 11:24:47 AM 38.2350 -114.8069 267° West 404 465 34,000  Level Salt Lake Center
Sat 11:26:52 AM 38.2250 -115.0908 267° West 403 464 34,000  Level Salt Lake Center
Sat 11:27:54 AM 38.2186 -115.2614 267° West 403 464 34,000  Level Salt Lake Center
Sat 11:28:56 AM 38.2131 -115.3839 267° West 402 463 34,000  Level Salt Lake Center
Sat 11:30:29 AM 38.2053 -115.6117 268° West 403 464 34,000  Level Oakland Center
Sat 11:31:00 AM 38.1997 -115.6964 265° West 402 463 34,000  Level Salt Lake Center
Sat 11:32:02 AM 38.1931 -115.8386 267° West 402 463 34,000  Level Salt Lake Center
Sat 11:33:04 AM 38.1867 -115.9814 267° West 404 465 34,000  Level Salt Lake Center
Sat 11:34:06 AM 38.1792 -116.1242 266° West 404 465 34,000  Level Salt Lake Center
Sat 11:35:08 AM 38.1731 -116.2669 267° West 404 465 34,000  Level Salt Lake Center
Sat 11:36:11 AM 38.1639 -116.4389 266° West 404 465 34,000  Level Salt Lake Center
Sat 11:37:13 AM 38.1561 -116.5825 266° West 405 466 34,000  Level Salt Lake Center
Sat 11:38:15 AM 38.1489 -116.7267 266° West 408 470 34,000  Level Salt Lake Center
Sat 11:39:17 AM 38.1417 -116.8692 266° West 408 470 34,000  Level Salt Lake Center
Sat 11:40:19 AM 38.1344 -117.0011 266° West 382 440 34,000  Level Salt Lake Center
Sat 11:41:21 AM 38.1269 -117.1428 266° West 377 434 34,000  Level Salt Lake Center
Sat 11:42:23 AM 38.1144 -117.2839 264° West 386 444 34,000  Level Salt Lake Center
Sat 11:43:25 AM 38.0661 -117.4003 242° Southwest 393 452 34,000  Level Salt Lake Center
Sat 11:44:27 AM 37.9389 -117.4644 202° Southwest 413 475 34,000  Level Salt Lake Center
Sat 11:45:29 AM 37.8275 -117.5083 197° South 418 481 34,000  Level Salt Lake Center
Sat 11:46:32 AM 37.7172 -117.5522 197° South 420 483 34,000  Level Salt Lake Center
Sat 11:47:51 AM 37.6156 -117.6522 218° Southwest 402 463 34,000  Level Oakland Center
Sat 11:49:38 AM 37.6028 -117.8906 266° West 378 435 34,000  Level Salt Lake Center
Sat 11:50:40 AM 37.6056 -118.0228 272° West 378 435 34,000  Level Salt Lake Center
Sat 11:51:42 AM 37.6094 -118.1806 272° West 377 434 34,000  Level Salt Lake Center
Sat 11:52:44 AM 37.6114 -118.3139 271° West 377 434 34,000  Level Salt Lake Center
Sat 11:53:46 AM 37.6128 -118.4478 271° West 379 436 34,000 -794 Level Salt Lake Center
Sat 11:55:00 AM 37.6150 -118.6086 271° West 382 440 32,200 -889 Descending Oakland Center
Sat 11:56:01 AM 37.6172 -118.7431 271° West 382 440 32,000 -98 Descending Oakland Center
Sat 11:57:03 AM 37.6186 -118.8769 271° West 386 444 32,000  Level Oakland Center
Sat 11:58:04 AM 37.6206 -119.0122 271° West 386 444 32,000  Level Oakland Center
Sat 11:59:05 AM 37.6225 -119.1750 271° West 387 445 32,000  Level Oakland Center
Sat 12:00:07 PM 37.6222 -119.3097 270° West 388 447 32,000  Level Oakland Center
Sat 12:01:08 PM 37.6250 -119.4444 272° West 387 445 32,000  Level Oakland Center
Sat 12:02:09 PM 37.6261 -119.5800 271° West 387 445 32,000  Level Oakland Center
Sat 12:03:11 PM 37.6264 -119.7147 270° West 386 444 32,000  Level Oakland Center
Sat 12:04:12 PM 37.6264 -119.8528 270° West 388 447 32,000  Level Oakland Center
Sat 12:05:14 PM 37.6275 -119.9889 271° West 388 447 32,000 -244 Level Oakland Center
Sat 12:06:15 PM 37.6272 -120.1267 270° West 389 448 31,500 -1,328 Descending Oakland Center
Sat 12:07:16 PM 37.6286 -120.2606 271° West 385 443 29,300 -2,000 Descending Oakland Center
Sat 12:08:18 PM 37.6261 -120.3961 269° West 386 444 27,400 -1,946 Descending Oakland Center
Sat 12:10:21 PM 37.6278 -120.6764 271° West 364 419 23,300 -1,891 Descending Oakland Center
Sat 12:11:22 PM 37.6264 -120.8014 269° West 359 413 21,600 -1,707 Descending Oakland Center
Sat 12:12:24 PM 37.6264 -120.9169 270° West 338 389 19,800 -1,805 Descending Oakland Center
Sat 12:13:25 PM 37.6194 -121.0317 266° West 331 381 17,900 -1,869 Descending Oakland Center
Sat 12:14:26 PM 37.6058 -121.1503 262° West 330 380 16,000 -1,805 Descending Oakland Center
Sat 12:15:28 PM 37.5928 -121.2625 262° West 326 375 14,200 -1,701 Descending Oakland Center
Sat 12:16:33 PM 37.5833 -121.3833 264° West 321 369 12,400 -1,536 Descending Northern Cal TRACON
Sat 12:17:33 PM 37.5667 -121.5000 260° West 300 345 11,000 -661 Descending Northern Cal TRACON
Sat 12:18:40 PM 37.5500 -121.6000 258° West 293 337 11,000 -182 Level Northern Cal TRACON
Sat 12:19:45 PM 37.5333 -121.7167 260° West 254 292 10,600 -850 Descending Northern Cal TRACON
Sat 12:20:40 PM 37.5167 -121.7833 253° West 241 277 9,300 -1,243 Descending Northern Cal TRACON
Sat 12:22:34 PM 37.4833 -121.9167 253° West 200 230 7,100 -1,100 Descending Northern Cal TRACON
Sat 12:23:40 PM 37.4667 -122.0000 256° West 215 247 6,000 -800 Descending Northern Cal TRACON
Sat 12:24:34 PM 37.4833 -122.0500 293° West 204 235 5,500 -1,053 Descending Northern Cal TRACON
Sat 12:25:34 PM 37.5167 -122.1167 302° West 204 235 4,000 -1,250 Descending Northern Cal TRACON
Sat 12:26:34 PM 37.5333 -122.1833 288° West 199 229 3,000 -1,000 Descending Northern Cal TRACON
Sat 12:27:34 PM 37.5667 -122.2500 302° West 192 221 2,000 -950 Descending Northern Cal TRACON
Sat 12:28:34 PM 37.5833 -122.3000 293° West 155 178 1,100 -806 Descending Northern Cal TRACON
Sat 12:29:48 PM 37.6078 -122.3436 305° West 154 177 200 -730 Descending Oakland Center

Login

Don't have an account? Register now (free) for customized features, flight alerts, and more!